createdAt,value
2023-01-05T00:00:31.303Z,16.60
2023-01-05T00:04:47.460Z,15.70
2023-01-05T00:09:04.448Z,22.02
2023-01-05T00:13:38.983Z,22.25
2023-01-05T00:18:13.876Z,23.77
2023-01-05T00:22:33.661Z,23.73
2023-01-05T00:26:49.831Z,24.77
2023-01-05T00:31:06.114Z,19.92
2023-01-05T00:35:23.872Z,24.42
2023-01-05T00:39:40.086Z,31.73
2023-01-05T00:43:56.256Z,22.58
2023-01-05T00:48:12.416Z,21.05
2023-01-05T00:52:28.662Z,17.12
2023-01-05T00:56:46.678Z,25.62
2023-01-05T01:01:09.041Z,22.48
2023-01-05T01:05:25.266Z,21.55
2023-01-05T01:09:41.624Z,18.90
2023-01-05T01:13:57.896Z,20.15
2023-01-05T01:18:14.014Z,16.42
2023-01-05T01:22:30.199Z,16.52
2023-01-05T01:26:46.464Z,18.05
2023-01-05T01:31:03.093Z,16.98
2023-01-05T01:35:19.301Z,29.73
2023-01-05T01:39:35.562Z,31.60
2023-01-05T01:43:54.170Z,26.83
2023-01-05T01:48:14.675Z,27.45
2023-01-05T01:52:31.856Z,31.20
2023-01-05T01:56:54.199Z,24.33
2023-01-05T02:01:11.237Z,23.00
2023-01-05T02:05:30.846Z,25.30
2023-01-05T02:09:47.144Z,21.20
2023-01-05T02:14:09.467Z,23.85
2023-01-05T02:18:44.273Z,23.15
2023-01-05T02:23:24.473Z,23.10
2023-01-05T02:27:59.322Z,22.45
2023-01-05T02:32:23.344Z,22.10
2023-01-05T02:36:48.028Z,22.40
2023-01-05T02:41:13.455Z,20.37
2023-01-05T02:45:30.291Z,28.83
2023-01-05T02:49:46.483Z,23.70
2023-01-05T02:54:07.171Z,21.73
2023-01-05T02:58:47.332Z,24.55
2023-01-05T03:03:28.854Z,22.55
2023-01-05T03:07:46.530Z,17.70
2023-01-05T03:12:33.775Z,19.98
2023-01-05T03:16:51.312Z,14.68
2023-01-05T03:21:07.600Z,13.45
2023-01-05T03:25:43.542Z,15.50
2023-01-05T03:30:18.746Z,14.80
2023-01-05T03:35:36.350Z,15.13
2023-01-05T03:39:52.523Z,13.52
2023-01-05T03:44:08.968Z,14.25
2023-01-05T03:48:27.361Z,14.18
2023-01-05T03:52:43.572Z,12.77
2023-01-05T03:56:59.790Z,11.80
2023-01-05T04:01:16.114Z,11.98
2023-01-05T04:05:32.442Z,11.77
2023-01-05T04:09:48.583Z,12.73
2023-01-05T04:14:04.788Z,12.35
2023-01-05T04:18:20.942Z,11.32
2023-01-05T04:22:37.075Z,12.75
2023-01-05T04:26:53.225Z,13.68
2023-01-05T04:31:09.377Z,11.12
2023-01-05T04:35:25.647Z,10.35
2023-01-05T04:39:41.817Z,10.85
2023-01-05T04:43:58.497Z,11.98
2023-01-05T04:48:14.892Z,10.52
2023-01-05T04:52:31.145Z,9.05
2023-01-05T04:56:47.347Z,13.57
2023-01-05T05:01:03.751Z,9.60
2023-01-05T05:05:19.948Z,9.77
2023-01-05T05:09:36.160Z,8.95
2023-01-05T05:13:52.328Z,7.53
2023-01-05T05:18:09.580Z,9.75
2023-01-05T05:22:26.600Z,7.12
2023-01-05T05:26:42.838Z,6.12
2023-01-05T05:30:59.117Z,5.62
2023-01-05T05:35:15.494Z,5.57
2023-01-05T05:39:31.659Z,8.75
2023-01-05T05:43:47.819Z,11.73
2023-01-05T05:48:04.023Z,8.00
2023-01-05T05:52:20.410Z,7.95
2023-01-05T05:56:36.609Z,10.95
2023-01-05T06:00:57.144Z,7.97
2023-01-05T06:05:13.308Z,7.37
2023-01-05T06:09:29.517Z,9.55
2023-01-05T06:13:46.363Z,6.78
2023-01-05T06:18:02.501Z,7.05
2023-01-05T06:22:18.658Z,6.85
2023-01-05T06:26:34.807Z,6.70
2023-01-05T06:30:50.915Z,9.63
2023-01-05T06:35:07.434Z,14.02
2023-01-05T06:39:23.723Z,7.87
2023-01-05T06:43:40.085Z,10.88
2023-01-05T06:47:57.761Z,6.45
2023-01-05T06:52:16.489Z,9.18
2023-01-05T06:56:33.171Z,7.87
2023-01-05T07:00:49.383Z,8.77
2023-01-05T07:05:05.917Z,6.18
2023-01-05T07:09:22.101Z,8.25
2023-01-05T07:13:38.248Z,5.25
2023-01-05T07:17:54.414Z,4.50
2023-01-05T07:22:10.752Z,6.57
2023-01-05T07:26:27.057Z,3.95
2023-01-05T07:30:43.352Z,4.75
2023-01-05T07:34:59.562Z,3.60
2023-01-05T07:39:16.113Z,3.60
2023-01-05T07:43:32.320Z,3.45
2023-01-05T07:47:48.571Z,5.25
2023-01-05T07:52:05.057Z,5.35
2023-01-05T07:56:21.336Z,8.65
2023-01-05T08:00:37.547Z,3.60
2023-01-05T08:04:54.226Z,3.08
2023-01-05T08:09:29.164Z,2.92
2023-01-05T08:14:01.162Z,2.75
2023-01-05T08:18:17.357Z,2.22
2023-01-05T08:22:33.573Z,2.40
2023-01-05T08:26:51.627Z,2.65
2023-01-05T08:31:13.802Z,2.80
2023-01-05T08:35:29.981Z,3.05
2023-01-05T08:39:46.163Z,3.92
2023-01-05T08:44:05.623Z,4.80
2023-01-05T08:48:22.148Z,4.37
2023-01-05T08:52:41.026Z,3.97
2023-01-05T08:56:57.227Z,3.75
2023-01-05T09:01:18.190Z,2.40
2023-01-05T09:05:34.466Z,1.85
2023-01-05T09:09:50.646Z,1.85
2023-01-05T09:14:06.895Z,1.58
2023-01-05T09:18:23.180Z,2.80
2023-01-05T09:22:39.583Z,2.35
2023-01-05T09:26:56.483Z,2.67
2023-01-05T09:31:15.242Z,2.55
2023-01-05T09:35:31.495Z,3.83
2023-01-05T09:39:48.102Z,2.12
2023-01-05T09:44:12.420Z,4.43
2023-01-05T09:48:31.125Z,2.80
2023-01-05T09:52:48.171Z,8.30
2023-01-05T09:57:09.639Z,6.78
2023-01-05T10:01:26.705Z,6.40
2023-01-05T10:05:46.433Z,6.25
2023-01-05T10:10:09.027Z,9.35
2023-01-05T10:14:28.927Z,7.13
2023-01-05T10:18:45.946Z,8.48
2023-01-05T10:23:21.929Z,7.43
2023-01-05T10:27:39.675Z,7.93
2023-01-05T10:32:12.148Z,8.27
2023-01-05T10:37:11.333Z,5.87
2023-01-05T10:41:33.653Z,7.65
2023-01-05T10:46:19.643Z,7.60
2023-01-05T10:50:29.248Z,4.97
2023-01-05T10:54:49.604Z,6.87
2023-01-05T10:59:11.666Z,4.32
2023-01-05T11:04:24.009Z,5.03
2023-01-05T11:08:20.415Z,5.35
2023-01-05T11:12:39.769Z,3.75
2023-01-05T11:17:02.011Z,5.50
2023-01-05T11:21:31.644Z,3.30
2023-01-05T11:25:47.857Z,3.90
2023-01-05T11:30:33.698Z,4.15
2023-01-05T11:34:52.015Z,4.37
2023-01-05T11:39:17.600Z,3.42
2023-01-05T11:43:34.192Z,5.07
2023-01-05T11:47:51.453Z,6.18
2023-01-05T11:52:28.574Z,4.50
2023-01-05T11:56:44.835Z,4.85
2023-01-05T12:01:07.501Z,7.90
2023-01-05T12:05:51.853Z,5.43
2023-01-05T12:10:36.931Z,5.65
2023-01-05T12:14:59.097Z,6.87
2023-01-05T12:19:38.241Z,5.15
2023-01-05T12:23:57.217Z,7.43
2023-01-05T12:28:39.517Z,6.10
2023-01-05T12:42:49.352Z,5.03
2023-01-05T12:47:37.069Z,5.95
2023-01-05T12:52:19.093Z,6.82
2023-01-05T12:56:38.607Z,5.95
2023-01-05T13:00:57.817Z,5.15
2023-01-05T13:05:32.671Z,4.97
2023-01-05T13:10:03.371Z,6.45
2023-01-05T13:14:35.126Z,8.85
2023-01-05T13:19:23.240Z,5.97
2023-01-05T13:23:52.029Z,4.30
2023-01-05T13:28:17.685Z,7.72
2023-01-05T13:32:40.011Z,6.85
2023-01-05T13:37:06.182Z,7.10
2023-01-05T13:41:43.549Z,6.53
2023-01-05T13:46:05.555Z,5.57
2023-01-05T13:50:42.869Z,6.10
2023-01-05T13:55:02.466Z,7.85
2023-01-05T13:59:34.511Z,4.30
2023-01-05T14:03:57.448Z,3.80
2023-01-05T14:08:38.506Z,7.87
2023-01-05T14:12:54.960Z,8.07
2023-01-05T14:17:11.530Z,4.45
2023-01-05T14:21:49.409Z,8.32
2023-01-05T14:26:07.013Z,5.97
2023-01-05T14:30:24.420Z,6.12
2023-01-05T14:35:09.780Z,4.57
2023-01-05T14:39:34.397Z,7.57
2023-01-05T14:44:06.077Z,5.18
2023-01-05T14:48:43.188Z,8.85
2023-01-05T14:53:34.621Z,3.15
2023-01-05T14:57:56.568Z,3.83
2023-01-05T15:02:22.616Z,3.55
2023-01-05T15:07:06.914Z,7.78
2023-01-05T15:11:35.243Z,6.95
2023-01-05T15:16:03.469Z,7.53
2023-01-05T15:20:26.300Z,4.45
2023-01-05T15:24:57.996Z,4.20
2023-01-05T15:29:50.905Z,8.18
2023-01-05T15:34:28.598Z,7.05
2023-01-05T15:38:46.720Z,7.20
2023-01-05T15:43:04.354Z,5.62
2023-01-05T15:47:22.266Z,8.30
2023-01-05T15:51:38.533Z,6.25
2023-01-05T15:55:55.041Z,3.28
2023-01-05T16:00:26.211Z,4.50
2023-01-05T16:04:42.337Z,7.82
2023-01-05T16:09:07.675Z,11.90
2023-01-05T16:13:29.615Z,6.78
2023-01-05T16:17:47.906Z,7.70
2023-01-05T16:22:04.058Z,7.75
2023-01-05T16:26:20.570Z,6.40
2023-01-05T16:30:39.256Z,6.28
2023-01-05T16:35:26.746Z,6.53
2023-01-05T16:39:44.535Z,7.72
2023-01-05T16:44:03.825Z,5.03
2023-01-05T16:48:40.821Z,6.68
2023-01-05T16:53:04.703Z,12.55
2023-01-05T16:57:33.533Z,6.22
2023-01-05T17:01:49.880Z,7.60
2023-01-05T17:06:06.885Z,9.75
2023-01-05T17:10:27.584Z,7.28
2023-01-05T17:14:45.826Z,7.65
2023-01-05T17:19:02.449Z,7.75
2023-01-05T17:23:29.273Z,11.10
2023-01-05T17:27:46.543Z,6.60
2023-01-05T17:32:03.144Z,6.93
2023-01-05T17:36:21.582Z,8.15
2023-01-05T17:40:38.245Z,5.87
2023-01-05T17:44:54.545Z,6.18
2023-01-05T17:49:16.112Z,9.70
2023-01-05T17:53:32.509Z,10.15
2023-01-05T17:57:48.769Z,6.05
2023-01-05T18:02:05.082Z,7.60
2023-01-05T18:06:21.361Z,7.90
2023-01-05T18:10:38.504Z,13.15
2023-01-05T18:14:54.778Z,8.63
2023-01-05T18:19:11.044Z,6.07
2023-01-05T18:23:27.385Z,6.80
2023-01-05T18:27:43.671Z,9.23
2023-01-05T18:32:00.131Z,6.53
2023-01-05T18:36:16.437Z,7.30
2023-01-05T18:40:32.651Z,6.40
2023-01-05T18:44:48.942Z,7.68
2023-01-05T18:49:06.192Z,9.70
2023-01-05T18:53:23.168Z,7.65
2023-01-05T18:57:39.345Z,6.53
2023-01-05T19:01:55.862Z,9.00
2023-01-05T19:06:16.483Z,10.20
2023-01-05T19:10:32.915Z,5.55
2023-01-05T19:14:49.061Z,6.95
2023-01-05T19:19:10.891Z,9.48
2023-01-05T19:23:27.350Z,5.68
2023-01-05T19:27:47.534Z,7.82
2023-01-05T19:32:05.308Z,7.40
2023-01-05T19:36:23.845Z,6.72
2023-01-05T19:40:40.153Z,7.00
2023-01-05T19:44:56.503Z,8.18
2023-01-05T19:49:21.188Z,7.28
2023-01-05T19:53:38.597Z,7.90
2023-01-05T19:57:54.849Z,5.28
2023-01-05T20:02:11.476Z,10.70
2023-01-05T20:06:37.144Z,8.98
2023-01-05T20:10:53.301Z,7.60
2023-01-05T20:15:12.850Z,11.95
2023-01-05T20:19:32.120Z,11.93
2023-01-05T20:23:48.613Z,9.30
2023-01-05T20:28:04.910Z,7.55
2023-01-05T20:32:23.887Z,7.20
2023-01-05T20:36:40.639Z,7.47
2023-01-05T20:40:57.261Z,4.95
2023-01-05T20:45:15.345Z,4.93
2023-01-05T20:49:33.239Z,3.45
2023-01-05T20:53:50.241Z,4.97
2023-01-05T20:58:06.679Z,5.37
2023-01-05T21:02:24.646Z,2.90
2023-01-05T21:06:43.596Z,6.53
2023-01-05T21:11:01.059Z,17.85
2023-01-05T21:15:20.784Z,9.98
2023-01-05T21:19:39.062Z,4.85
2023-01-05T21:23:55.896Z,6.80
2023-01-05T21:28:12.548Z,6.12
2023-01-05T21:32:28.779Z,8.43
2023-01-05T21:36:46.044Z,5.22
2023-01-05T21:41:09.518Z,7.93
2023-01-05T21:49:41.893Z,4.53
2023-01-05T21:54:19.136Z,8.82
2023-01-05T21:58:37.967Z,7.35
2023-01-05T22:02:54.310Z,7.35
2023-01-05T22:07:11.094Z,7.10
2023-01-05T22:11:27.343Z,10.65
2023-01-05T22:15:44.615Z,4.65
2023-01-05T22:20:01.036Z,4.93
2023-01-05T22:24:17.335Z,6.45
2023-01-05T22:28:35.613Z,5.22
2023-01-05T22:32:51.896Z,7.18
2023-01-05T22:37:08.099Z,5.57
2023-01-05T22:41:27.259Z,5.85
2023-01-05T22:45:43.416Z,6.75
2023-01-05T22:49:59.597Z,6.90
2023-01-05T22:54:15.837Z,7.30
2023-01-05T22:58:32.078Z,4.43
2023-01-05T23:02:48.240Z,9.63
2023-01-05T23:07:04.776Z,7.72
2023-01-05T23:11:26.549Z,7.03
2023-01-05T23:15:52.751Z,4.60
2023-01-05T23:20:12.687Z,6.80
2023-01-05T23:24:28.928Z,6.50
2023-01-05T23:28:45.879Z,6.87
2023-01-05T23:33:02.105Z,3.60
2023-01-05T23:37:18.335Z,6.32
2023-01-05T23:41:36.833Z,11.75
2023-01-05T23:46:02.293Z,5.35
2023-01-05T23:50:18.536Z,7.00
2023-01-05T23:54:34.744Z,4.78
2023-01-05T23:58:56.828Z,3.22
